Terminal Aerodrome Forecast
Issued by NWS

Current Version | Previous Version | Graphics & Text | Print | Product List | Glossary On
Versions: 1 2 3 4 5 6 7 8 9 10 11 12 13 14 15 16 17 18 19 20 21 22 23 24 25 26 27 28 29 30 31
000
FTUS41 KPBZ 261100
TAFHLG
TAF
KHLG 261120Z 2612/2712 05003KT P6SM OVC150
     FM261500 01004KT 6SM -SN OVC035
     FM261700 02005KT 2SM -SN BR OVC015
     FM262100 VRB03KT P6SM OVC020=

USA.gov is the U.S. government's official web portal to all federal, state and local government web resources and services.